sensor_id;sensor_type;location;lat;lon;timestamp;pressure;altitude;pressure_sealevel;temperature;humidity
30081;BME280;16902;50.816;12.828;2022-09-09T00:06:55;97442.63;;;10.06;100.00
30081;BME280;16902;50.816;12.828;2022-09-09T00:12:43;97436.09;;;10.32;100.00
30081;BME280;16902;50.816;12.828;2022-09-09T00:22:32;97422.50;;;10.15;100.00
30081;BME280;16902;50.816;12.828;2022-09-09T00:27:46;97413.06;;;10.14;100.00
30081;BME280;16902;50.816;12.828;2022-09-09T00:32:50;97418.38;;;10.05;100.00
30081;BME280;16902;50.816;12.828;2022-09-09T00:37:54;97408.28;;;9.96;100.00
30081;BME280;16902;50.816;12.828;2022-09-09T00:48:32;97412.28;;;9.92;100.00
30081;BME280;16902;50.816;12.828;2022-09-09T00:54:26;97413.38;;;9.83;100.00
30081;BME280;16902;50.816;12.828;2022-09-09T01:04:47;97411.84;;;9.73;100.00
30081;BME280;16902;50.816;12.828;2022-09-09T01:09:58;97415.19;;;9.67;100.00
30081;BME280;16902;50.816;12.828;2022-09-09T01:15:15;97420.94;;;9.63;100.00
30081;BME280;16902;50.816;12.828;2022-09-09T01:20:25;97422.44;;;9.57;100.00
30081;BME280;16902;50.816;12.828;2022-09-09T01:30:54;97419.88;;;9.42;100.00
30081;BME280;16902;50.816;12.828;2022-09-09T01:41:13;97416.56;;;9.48;100.00
30081;BME280;16902;50.816;12.828;2022-09-09T01:46:33;97405.19;;;9.49;100.00
30081;BME280;16902;50.816;12.828;2022-09-09T01:51:37;97404.13;;;9.44;100.00
30081;BME280;16902;50.816;12.828;2022-09-09T02:03:11;97403.31;;;9.29;100.00
30081;BME280;16902;50.816;12.828;2022-09-09T02:07:48;97407.97;;;9.33;100.00
30081;BME280;16902;50.816;12.828;2022-09-09T02:13:07;97407.34;;;9.31;100.00
30081;BME280;16902;50.816;12.828;2022-09-09T02:18:12;97410.13;;;9.30;100.00
30081;BME280;16902;50.816;12.828;2022-09-09T02:23:16;97410.47;;;9.26;100.00
30081;BME280;16902;50.816;12.828;2022-09-09T02:28:23;97409.13;;;9.31;100.00
30081;BME280;16902;50.816;12.828;2022-09-09T02:33:29;97407.53;;;9.30;100.00
30081;BME280;16902;50.816;12.828;2022-09-09T02:38:35;97413.88;;;9.27;100.00
30081;BME280;16902;50.816;12.828;2022-09-09T02:43:43;97400.81;;;9.35;100.00
30081;BME280;16902;50.816;12.828;2022-09-09T02:54:06;97406.69;;;9.59;100.00
30081;BME280;16902;50.816;12.828;2022-09-09T02:59:11;97400.44;;;9.38;100.00
30081;BME280;16902;50.816;12.828;2022-09-09T03:04:13;97398.28;;;9.27;100.00
30081;BME280;16902;50.816;12.828;2022-09-09T03:09:15;97402.88;;;9.25;100.00
30081;BME280;16902;50.816;12.828;2022-09-09T03:14:17;97394.16;;;9.18;100.00
30081;BME280;16902;50.816;12.828;2022-09-09T03:19:23;97397.56;;;9.18;100.00
30081;BME280;16902;50.816;12.828;2022-09-09T03:24:25;97403.13;;;9.15;100.00
30081;BME280;16902;50.816;12.828;2022-09-09T03:29:28;97408.78;;;9.19;100.00
30081;BME280;16902;50.816;12.828;2022-09-09T03:34:32;97412.53;;;9.16;100.00
30081;BME280;16902;50.816;12.828;2022-09-09T03:39:33;97408.16;;;9.17;100.00
30081;BME280;16902;50.816;12.828;2022-09-09T03:44:35;97407.06;;;9.26;100.00
30081;BME280;16902;50.816;12.828;2022-09-09T03:49:37;97404.13;;;9.29;100.00
30081;BME280;16902;50.816;12.828;2022-09-09T03:54:39;97401.44;;;9.22;100.00
30081;BME280;16902;50.816;12.828;2022-09-09T03:59:40;97405.81;;;9.22;100.00
30081;BME280;16902;50.816;12.828;2022-09-09T04:04:43;97403.88;;;9.24;100.00
30081;BME280;16902;50.816;12.828;2022-09-09T04:09:45;97405.72;;;9.30;100.00
30081;BME280;16902;50.816;12.828;2022-09-09T04:14:48;97394.16;;;9.33;100.00
30081;BME280;16902;50.816;12.828;2022-09-09T04:19:50;97388.34;;;9.31;100.00
30081;BME280;16902;50.816;12.828;2022-09-09T04:24:51;97387.19;;;9.33;100.00
30081;BME280;16902;50.816;12.828;2022-09-09T04:29:54;97390.59;;;9.48;100.00
30081;BME280;16902;50.816;12.828;2022-09-09T04:35:00;97401.13;;;9.62;100.00
30081;BME280;16902;50.816;12.828;2022-09-09T04:40:03;97398.41;;;9.70;100.00
30081;BME280;16902;50.816;12.828;2022-09-09T04:45:06;97401.22;;;9.68;100.00
30081;BME280;16902;50.816;12.828;2022-09-09T04:50:09;97397.63;;;9.69;100.00
30081;BME280;16902;50.816;12.828;2022-09-09T04:55:10;97406.44;;;9.90;100.00
30081;BME280;16902;50.816;12.828;2022-09-09T05:00:17;97404.53;;;9.98;100.00
30081;BME280;16902;50.816;12.828;2022-09-09T05:05:20;97407.75;;;10.00;100.00
30081;BME280;16902;50.816;12.828;2022-09-09T05:10:23;97413.38;;;10.04;100.00
30081;BME280;16902;50.816;12.828;2022-09-09T05:15:25;97413.72;;;10.16;100.00
30081;BME280;16902;50.816;12.828;2022-09-09T05:20:27;97415.06;;;10.12;100.00
30081;BME280;16902;50.816;12.828;2022-09-09T05:25:29;97416.84;;;10.26;100.00
30081;BME280;16902;50.816;12.828;2022-09-09T05:30:31;97415.50;;;10.30;100.00
30081;BME280;16902;50.816;12.828;2022-09-09T05:35:37;97414.78;;;10.43;100.00
30081;BME280;16902;50.816;12.828;2022-09-09T05:40:47;97425.34;;;10.63;100.00
30081;BME280;16902;50.816;12.828;2022-09-09T05:45:59;97425.34;;;10.84;100.00
30081;BME280;16902;50.816;12.828;2022-09-09T05:51:05;97429.66;;;10.98;100.00
30081;BME280;16902;50.816;12.828;2022-09-09T05:56:22;97426.81;;;11.28;100.00
30081;BME280;16902;50.816;12.828;2022-09-09T06:01:31;97435.00;;;11.59;100.00
30081;BME280;16902;50.816;12.828;2022-09-09T06:06:36;97441.22;;;12.13;100.00
30081;BME280;16902;50.816;12.828;2022-09-09T06:11:43;97437.69;;;12.74;100.00
30081;BME280;16902;50.816;12.828;2022-09-09T06:16:46;97440.88;;;13.29;100.00
30081;BME280;16902;50.816;12.828;2022-09-09T06:21:52;97436.09;;;13.84;100.00
30081;BME280;16902;50.816;12.828;2022-09-09T06:26:54;97436.75;;;14.11;100.00
30081;BME280;16902;50.816;12.828;2022-09-09T06:32:01;97435.63;;;14.32;100.00
30081;BME280;16902;50.816;12.828;2022-09-09T06:37:04;97448.44;;;14.40;100.00
30081;BME280;16902;50.816;12.828;2022-09-09T06:42:13;97442.13;;;14.23;100.00
30081;BME280;16902;50.816;12.828;2022-09-09T06:47:23;97439.53;;;14.54;100.00
30081;BME280;16902;50.816;12.828;2022-09-09T06:52:26;97440.19;;;14.75;100.00
30081;BME280;16902;50.816;12.828;2022-09-09T06:57:29;97451.25;;;15.02;100.00
30081;BME280;16902;50.816;12.828;2022-09-09T07:02:39;97446.88;;;15.39;100.00
30081;BME280;16902;50.816;12.828;2022-09-09T07:07:43;97451.47;;;15.62;100.00
30081;BME280;16902;50.816;12.828;2022-09-09T07:12:51;97449.66;;;15.62;100.00
30081;BME280;16902;50.816;12.828;2022-09-09T07:17:54;97450.66;;;15.80;100.00
30081;BME280;16902;50.816;12.828;2022-09-09T07:22:56;97458.94;;;16.13;100.00
30081;BME280;16902;50.816;12.828;2022-09-09T07:27:59;97458.72;;;16.45;100.00
30081;BME280;16902;50.816;12.828;2022-09-09T07:33:01;97456.97;;;16.81;100.00
30081;BME280;16902;50.816;12.828;2022-09-09T07:38:05;97461.56;;;17.20;100.00
30081;BME280;16902;50.816;12.828;2022-09-09T07:43:08;97467.75;;;17.38;100.00
30081;BME280;16902;50.816;12.828;2022-09-09T07:48:13;97468.78;;;17.60;100.00
30081;BME280;16902;50.816;12.828;2022-09-09T07:53:14;97473.84;;;18.02;100.00
30081;BME280;16902;50.816;12.828;2022-09-09T07:58:16;97478.22;;;18.25;100.00
30081;BME280;16902;50.816;12.828;2022-09-09T08:03:18;97480.06;;;18.24;100.00
30081;BME280;16902;50.816;12.828;2022-09-09T08:08:19;97484.63;;;18.58;100.00
30081;BME280;16902;50.816;12.828;2022-09-09T08:13:21;97485.69;;;18.90;100.00
30081;BME280;16902;50.816;12.828;2022-09-09T08:18:23;97492.50;;;19.20;100.00
30081;BME280;16902;50.816;12.828;2022-09-09T08:23:24;97488.19;;;19.52;100.00
30081;BME280;16902;50.816;12.828;2022-09-09T08:28:27;97485.34;;;19.54;100.00
30081;BME280;16902;50.816;12.828;2022-09-09T08:33:29;97474.03;;;19.20;100.00
30081;BME280;16902;50.816;12.828;2022-09-09T08:38:30;97487.94;;;19.15;100.00
30081;BME280;16902;50.816;12.828;2022-09-09T08:43:33;97490.31;;;19.50;100.00
30081;BME280;16902;50.816;12.828;2022-09-09T08:54:03;97494.50;;;18.79;100.00
30081;BME280;16902;50.816;12.828;2022-09-09T08:59:10;97489.41;;;18.32;100.00
30081;BME280;16902;50.816;12.828;2022-09-09T09:09:52;97490.63;;;19.54;100.00
30081;BME280;16902;50.816;12.828;2022-09-09T09:15:00;97495.72;;;19.77;100.00
30081;BME280;16902;50.816;12.828;2022-09-09T09:20:03;97486.22;;;19.60;100.00
30081;BME280;16902;50.816;12.828;2022-09-09T09:25:19;97481.78;;;19.26;100.00
30081;BME280;16902;50.816;12.828;2022-09-09T09:30:25;97482.59;;;18.93;100.00
30081;BME280;16902;50.816;12.828;2022-09-09T09:35:37;97480.59;;;19.56;100.00
30081;BME280;16902;50.816;12.828;2022-09-09T09:40:52;97481.06;;;20.36;100.00
30081;BME280;16902;50.816;12.828;2022-09-09T09:46:00;97483.78;;;21.05;100.00
30081;BME280;16902;50.816;12.828;2022-09-09T09:51:20;97477.88;;;20.93;100.00
30081;BME280;16902;50.816;12.828;2022-09-09T09:56:28;97477.22;;;20.75;100.00
30081;BME280;16902;50.816;12.828;2022-09-09T10:01:32;97477.91;;;20.66;100.00
30081;BME280;16902;50.816;12.828;2022-09-09T10:06:38;97475.81;;;20.68;100.00
30081;BME280;16902;50.816;12.828;2022-09-09T10:11:44;97473.25;;;21.10;100.00
30081;BME280;16902;50.816;12.828;2022-09-09T10:17:17;97479.59;;;21.09;100.00
30081;BME280;16902;50.816;12.828;2022-09-09T10:22:28;97483.13;;;20.88;100.00
30081;BME280;16902;50.816;12.828;2022-09-09T10:33:08;97474.97;;;21.74;100.00
30081;BME280;16902;50.816;12.828;2022-09-09T10:38:16;97477.06;;;21.67;100.00
30081;BME280;16902;50.816;12.828;2022-09-09T10:59:17;97459.31;;;22.61;100.00
30081;BME280;16902;50.816;12.828;2022-09-09T11:04:25;97466.50;;;22.91;100.00
30081;BME280;16902;50.816;12.828;2022-09-09T11:09:33;97465.28;;;23.83;100.00
30081;BME280;16902;50.816;12.828;2022-09-09T11:14:53;97467.94;;;23.78;100.00
30081;BME280;16902;50.816;12.828;2022-09-09T11:19:57;97460.38;;;23.16;100.00
30081;BME280;16902;50.816;12.828;2022-09-09T11:25:08;97466.66;;;22.18;100.00
30081;BME280;16902;50.816;12.828;2022-09-09T11:30:25;97472.72;;;23.81;100.00
30081;BME280;16902;50.816;12.828;2022-09-09T11:36:19;97469.59;;;25.02;100.00
30081;BME280;16902;50.816;12.828;2022-09-09T11:41:33;97479.91;;;23.81;100.00
30081;BME280;16902;50.816;12.828;2022-09-09T11:46:37;97470.28;;;24.84;100.00
30081;BME280;16902;50.816;12.828;2022-09-09T11:51:40;97465.06;;;25.08;100.00
30081;BME280;16902;50.816;12.828;2022-09-09T11:56:45;97459.09;;;27.20;100.00
30081;BME280;16902;50.816;12.828;2022-09-09T12:01:58;97455.06;;;24.06;100.00
30081;BME280;16902;50.816;12.828;2022-09-09T12:07:23;97449.50;;;22.76;100.00
30081;BME280;16902;50.816;12.828;2022-09-09T12:12:33;97440.25;;;23.95;100.00
30081;BME280;16902;50.816;12.828;2022-09-09T12:17:44;97442.31;;;24.86;100.00
30081;BME280;16902;50.816;12.828;2022-09-09T12:22:56;97436.47;;;26.28;100.00
30081;BME280;16902;50.816;12.828;2022-09-09T12:28:05;97425.81;;;26.28;100.00
30081;BME280;16902;50.816;12.828;2022-09-09T12:33:12;97424.28;;;26.41;100.00
30081;BME280;16902;50.816;12.828;2022-09-09T12:38:33;97429.66;;;27.80;100.00
30081;BME280;16902;50.816;12.828;2022-09-09T12:43:35;97432.28;;;27.25;94.08
30081;BME280;16902;50.816;12.828;2022-09-09T12:48:41;97425.50;;;28.24;88.37
30081;BME280;16902;50.816;12.828;2022-09-09T12:53:44;97423.13;;;28.09;87.76
30081;BME280;16902;50.816;12.828;2022-09-09T12:58:49;97414.44;;;28.62;83.71
30081;BME280;16902;50.816;12.828;2022-09-09T13:03:53;97407.94;;;28.54;81.96
30081;BME280;16902;50.816;12.828;2022-09-09T13:08:57;97401.41;;;27.33;88.24
30081;BME280;16902;50.816;12.828;2022-09-09T13:14:00;97396.31;;;25.10;100.00
30081;BME280;16902;50.816;12.828;2022-09-09T13:19:08;97400.50;;;25.64;100.00
30081;BME280;16902;50.816;12.828;2022-09-09T13:24:33;97410.59;;;24.17;100.00
30081;BME280;16902;50.816;12.828;2022-09-09T13:29:35;97404.44;;;27.26;93.42
30081;BME280;16902;50.816;12.828;2022-09-09T13:34:38;97399.53;;;26.54;93.50
30081;BME280;16902;50.816;12.828;2022-09-09T13:39:40;97399.25;;;29.99;80.36
30081;BME280;16902;50.816;12.828;2022-09-09T13:44:42;97401.03;;;28.62;75.92
30081;BME280;16902;50.816;12.828;2022-09-09T13:49:43;97398.44;;;31.32;66.07
30081;BME280;16902;50.816;12.828;2022-09-09T13:54:51;97390.06;;;34.83;48.78
30081;BME280;16902;50.816;12.828;2022-09-09T13:59:53;97389.06;;;33.30;44.43
30081;BME280;16902;50.816;12.828;2022-09-09T14:05:06;97382.63;;;34.80;42.78
30081;BME280;16902;50.816;12.828;2022-09-09T14:10:09;97379.88;;;35.08;41.23
30081;BME280;16902;50.816;12.828;2022-09-09T14:15:12;97379.69;;;34.57;42.51
30081;BME280;16902;50.816;12.828;2022-09-09T14:20:13;97380.88;;;32.69;46.73
30081;BME280;16902;50.816;12.828;2022-09-09T14:25:16;97385.03;;;30.51;52.93
30081;BME280;16902;50.816;12.828;2022-09-09T14:30:18;97380.25;;;28.36;65.10
30081;BME280;16902;50.816;12.828;2022-09-09T14:35:20;97364.44;;;26.09;64.30
30081;BME280;16902;50.816;12.828;2022-09-09T14:40:21;97354.00;;;24.45;71.96
30081;BME280;16902;50.816;12.828;2022-09-09T14:45:23;97362.91;;;23.11;85.99
30081;BME280;16902;50.816;12.828;2022-09-09T14:50:26;97359.28;;;22.56;90.79
30081;BME280;16902;50.816;12.828;2022-09-09T14:55:27;97385.16;;;21.83;100.00
30081;BME280;16902;50.816;12.828;2022-09-09T15:00:30;97396.97;;;21.07;100.00
30081;BME280;16902;50.816;12.828;2022-09-09T15:05:32;97394.78;;;20.57;100.00
30081;BME280;16902;50.816;12.828;2022-09-09T15:10:33;97400.66;;;20.10;100.00
30081;BME280;16902;50.816;12.828;2022-09-09T15:15:35;97392.22;;;19.86;100.00
30081;BME280;16902;50.816;12.828;2022-09-09T15:20:37;97393.59;;;19.66;100.00
30081;BME280;16902;50.816;12.828;2022-09-09T15:25:54;97405.50;;;19.47;100.00
30081;BME280;16902;50.816;12.828;2022-09-09T15:30:57;97396.97;;;19.40;100.00
30081;BME280;16902;50.816;12.828;2022-09-09T15:35:59;97400.78;;;19.49;100.00
30081;BME280;16902;50.816;12.828;2022-09-09T15:41:01;97416.59;;;19.88;100.00
30081;BME280;16902;50.816;12.828;2022-09-09T15:51:29;97402.63;;;20.19;100.00
30081;BME280;16902;50.816;12.828;2022-09-09T15:56:44;97402.53;;;19.05;100.00
30081;BME280;16902;50.816;12.828;2022-09-09T16:01:46;97380.41;;;18.21;100.00
30081;BME280;16902;50.816;12.828;2022-09-09T16:06:49;97379.34;;;18.22;100.00
30081;BME280;16902;50.816;12.828;2022-09-09T16:11:51;97384.31;;;18.36;100.00
30081;BME280;16902;50.816;12.828;2022-09-09T16:16:54;97390.00;;;18.44;100.00
30081;BME280;16902;50.816;12.828;2022-09-09T16:21:57;97388.09;;;18.40;100.00
30081;BME280;16902;50.816;12.828;2022-09-09T16:27:00;97402.31;;;18.39;100.00
30081;BME280;16902;50.816;12.828;2022-09-09T16:32:02;97395.13;;;18.34;100.00
30081;BME280;16902;50.816;12.828;2022-09-09T16:37:04;97412.09;;;18.27;100.00
30081;BME280;16902;50.816;12.828;2022-09-09T16:42:06;97413.53;;;18.17;100.00
30081;BME280;16902;50.816;12.828;2022-09-09T16:47:09;97412.53;;;18.07;100.00
30081;BME280;16902;50.816;12.828;2022-09-09T16:52:10;97410.78;;;17.95;100.00
30081;BME280;16902;50.816;12.828;2022-09-09T16:57:12;97422.25;;;17.89;100.00
30081;BME280;16902;50.816;12.828;2022-09-09T17:02:14;97422.84;;;17.80;100.00
30081;BME280;16902;50.816;12.828;2022-09-09T17:07:16;97415.97;;;17.67;100.00
30081;BME280;16902;50.816;12.828;2022-09-09T17:12:18;97418.31;;;17.52;100.00
30081;BME280;16902;50.816;12.828;2022-09-09T17:17:19;97419.94;;;17.41;100.00
30081;BME280;16902;50.816;12.828;2022-09-09T17:22:32;97409.66;;;17.28;100.00
30081;BME280;16902;50.816;12.828;2022-09-09T17:27:34;97408.97;;;17.09;100.00
30081;BME280;16902;50.816;12.828;2022-09-09T17:32:36;97406.91;;;16.99;100.00
30081;BME280;16902;50.816;12.828;2022-09-09T17:37:37;97407.38;;;16.84;100.00
30081;BME280;16902;50.816;12.828;2022-09-09T17:42:40;97411.97;;;16.47;100.00
30081;BME280;16902;50.816;12.828;2022-09-09T17:47:42;97404.50;;;16.21;100.00
30081;BME280;16902;50.816;12.828;2022-09-09T17:52:44;97412.66;;;16.01;100.00
30081;BME280;16902;50.816;12.828;2022-09-09T17:57:46;97407.31;;;15.77;100.00
30081;BME280;16902;50.816;12.828;2022-09-09T18:02:48;97415.03;;;15.54;100.00
30081;BME280;16902;50.816;12.828;2022-09-09T18:07:50;97412.41;;;15.54;100.00
30081;BME280;16902;50.816;12.828;2022-09-09T18:12:52;97414.06;;;15.30;100.00
30081;BME280;16902;50.816;12.828;2022-09-09T18:17:53;97417.50;;;15.30;100.00
30081;BME280;16902;50.816;12.828;2022-09-09T18:22:55;97430.25;;;15.45;100.00
30081;BME280;16902;50.816;12.828;2022-09-09T18:27:57;97436.06;;;15.10;100.00
30081;BME280;16902;50.816;12.828;2022-09-09T18:32:59;97436.13;;;14.79;100.00
30081;BME280;16902;50.816;12.828;2022-09-09T18:38:01;97431.41;;;14.62;100.00
30081;BME280;16902;50.816;12.828;2022-09-09T18:43:02;97438.44;;;14.30;100.00
30081;BME280;16902;50.816;12.828;2022-09-09T18:48:04;97428.53;;;14.07;100.00
30081;BME280;16902;50.816;12.828;2022-09-09T18:53:06;97433.25;;;13.85;100.00
30081;BME280;16902;50.816;12.828;2022-09-09T18:58:08;97432.31;;;13.73;100.00
30081;BME280;16902;50.816;12.828;2022-09-09T19:03:09;97439.59;;;13.58;100.00
30081;BME280;16902;50.816;12.828;2022-09-09T19:08:11;97444.22;;;13.56;100.00
30081;BME280;16902;50.816;12.828;2022-09-09T19:13:13;97448.88;;;13.54;100.00
30081;BME280;16902;50.816;12.828;2022-09-09T19:18:15;97459.13;;;13.55;100.00
30081;BME280;16902;50.816;12.828;2022-09-09T19:23:17;97465.94;;;13.70;100.00
30081;BME280;16902;50.816;12.828;2022-09-09T19:28:19;97475.16;;;13.72;100.00
30081;BME280;16902;50.816;12.828;2022-09-09T19:33:21;97482.97;;;13.85;100.00
30081;BME280;16902;50.816;12.828;2022-09-09T19:38:23;97482.03;;;13.73;100.00
30081;BME280;16902;50.816;12.828;2022-09-09T19:43:25;97493.72;;;13.64;100.00
30081;BME280;16902;50.816;12.828;2022-09-09T19:48:32;97485.88;;;13.57;100.00
30081;BME280;16902;50.816;12.828;2022-09-09T19:53:37;97478.06;;;13.51;100.00
30081;BME280;16902;50.816;12.828;2022-09-09T19:58:40;97480.63;;;13.57;100.00
30081;BME280;16902;50.816;12.828;2022-09-09T20:03:43;97482.25;;;13.58;100.00
30081;BME280;16902;50.816;12.828;2022-09-09T20:08:47;97485.84;;;13.71;100.00
30081;BME280;16902;50.816;12.828;2022-09-09T20:13:49;97507.94;;;13.88;100.00
30081;BME280;16902;50.816;12.828;2022-09-09T20:18:53;97503.50;;;13.88;100.00
30081;BME280;16902;50.816;12.828;2022-09-09T20:23:59;97504.81;;;14.11;100.00
30081;BME280;16902;50.816;12.828;2022-09-09T20:29:03;97501.06;;;14.38;100.00
30081;BME280;16902;50.816;12.828;2022-09-09T20:34:14;97508.25;;;14.50;100.00
30081;BME280;16902;50.816;12.828;2022-09-09T20:39:18;97505.72;;;14.36;100.00
30081;BME280;16902;50.816;12.828;2022-09-09T20:44:23;97512.88;;;14.09;100.00
30081;BME280;16902;50.816;12.828;2022-09-09T20:49:25;97505.31;;;13.81;100.00
30081;BME280;16902;50.816;12.828;2022-09-09T20:54:27;97521.28;;;13.60;100.00
30081;BME280;16902;50.816;12.828;2022-09-09T20:59:32;97517.88;;;13.46;100.00
30081;BME280;16902;50.816;12.828;2022-09-09T21:04:35;97515.28;;;13.40;100.00
30081;BME280;16902;50.816;12.828;2022-09-09T21:09:38;97513.47;;;13.40;100.00
30081;BME280;16902;50.816;12.828;2022-09-09T21:14:41;97512.69;;;13.40;100.00
30081;BME280;16902;50.816;12.828;2022-09-09T21:19:43;97521.91;;;13.42;100.00
30081;BME280;16902;50.816;12.828;2022-09-09T21:24:45;97511.66;;;13.54;100.00
30081;BME280;16902;50.816;12.828;2022-09-09T21:29:47;97504.94;;;13.71;100.00
30081;BME280;16902;50.816;12.828;2022-09-09T21:34:50;97500.34;;;13.73;100.00
30081;BME280;16902;50.816;12.828;2022-09-09T21:39:52;97500.56;;;13.65;100.00
30081;BME280;16902;50.816;12.828;2022-09-09T21:44:54;97511.84;;;13.59;100.00
30081;BME280;16902;50.816;12.828;2022-09-09T21:49:56;97520.06;;;13.62;100.00
30081;BME280;16902;50.816;12.828;2022-09-09T21:54:58;97515.03;;;13.74;100.00
30081;BME280;16902;50.816;12.828;2022-09-09T21:59:59;97509.75;;;13.81;100.00
30081;BME280;16902;50.816;12.828;2022-09-09T22:05:01;97514.78;;;13.82;100.00
30081;BME280;16902;50.816;12.828;2022-09-09T22:10:03;97508.53;;;13.90;100.00
30081;BME280;16902;50.816;12.828;2022-09-09T22:15:05;97513.53;;;13.98;100.00
30081;BME280;16902;50.816;12.828;2022-09-09T22:20:10;97505.53;;;13.80;100.00
30081;BME280;16902;50.816;12.828;2022-09-09T22:25:12;97505.16;;;13.63;100.00
30081;BME280;16902;50.816;12.828;2022-09-09T22:30:15;97507.03;;;13.43;100.00
30081;BME280;16902;50.816;12.828;2022-09-09T22:35:16;97507.22;;;13.15;100.00
30081;BME280;16902;50.816;12.828;2022-09-09T22:40:18;97504.41;;;12.90;100.00
30081;BME280;16902;50.816;12.828;2022-09-09T22:45:20;97500.38;;;12.67;100.00
30081;BME280;16902;50.816;12.828;2022-09-09T22:50:22;97503.56;;;12.43;100.00
30081;BME280;16902;50.816;12.828;2022-09-09T22:55:23;97493.88;;;12.23;100.00
30081;BME280;16902;50.816;12.828;2022-09-09T23:00:26;97484.34;;;12.02;100.00
30081;BME280;16902;50.816;12.828;2022-09-09T23:05:27;97485.06;;;11.83;100.00
30081;BME280;16902;50.816;12.828;2022-09-09T23:10:29;97482.38;;;11.70;100.00
30081;BME280;16902;50.816;12.828;2022-09-09T23:15:33;97476.91;;;11.58;100.00
30081;BME280;16902;50.816;12.828;2022-09-09T23:20:37;97478.72;;;11.57;100.00
30081;BME280;16902;50.816;12.828;2022-09-09T23:25:39;97486.50;;;11.51;100.00
30081;BME280;16902;50.816;12.828;2022-09-09T23:30:41;97484.25;;;11.41;100.00
30081;BME280;16902;50.816;12.828;2022-09-09T23:35:42;97483.75;;;11.31;100.00
30081;BME280;16902;50.816;12.828;2022-09-09T23:40:44;97485.91;;;11.21;100.00
30081;BME280;16902;50.816;12.828;2022-09-09T23:45:47;97482.03;;;11.10;100.00
30081;BME280;16902;50.816;12.828;2022-09-09T23:50:50;97477.56;;;11.04;100.00
30081;BME280;16902;50.816;12.828;2022-09-09T23:55:52;97478.94;;;11.00;100.00
